sensor_id;sensor_type;location;lat;lon;timestamp;P1;durP1;ratioP1;P2;durP2;ratioP2
73154;SDS011;61364;52.418;7.382;2022-09-09T00:02:24;2.40;;;2.40;;
73154;SDS011;61364;52.418;7.382;2022-09-09T00:07:39;2.38;;;2.38;;
73154;SDS011;61364;52.418;7.382;2022-09-09T00:25:54;2.28;;;2.28;;
73154;SDS011;61364;52.418;7.382;2022-09-09T00:28:25;2.51;;;2.51;;
73154;SDS011;61364;52.418;7.382;2022-09-09T00:30:52;2.57;;;2.57;;
73154;SDS011;61364;52.418;7.382;2022-09-09T00:33:22;2.15;;;2.15;;
73154;SDS011;61364;52.418;7.382;2022-09-09T00:35:53;2.19;;;2.19;;
73154;SDS011;61364;52.418;7.382;2022-09-09T00:40:50;2.49;;;2.49;;
73154;SDS011;61364;52.418;7.382;2022-09-09T00:43:28;2.74;;;2.74;;
73154;SDS011;61364;52.418;7.382;2022-09-09T00:48:50;2.51;;;2.51;;
73154;SDS011;61364;52.418;7.382;2022-09-09T00:56:21;2.59;;;2.59;;
73154;SDS011;61364;52.418;7.382;2022-09-09T00:59:35;2.54;;;2.54;;
73154;SDS011;61364;52.418;7.382;2022-09-09T01:01:40;2.49;;;2.49;;
73154;SDS011;61364;52.418;7.382;2022-09-09T01:04:11;2.51;;;2.51;;
73154;SDS011;61364;52.418;7.382;2022-09-09T01:06:41;2.65;;;2.65;;
73154;SDS011;61364;52.418;7.382;2022-09-09T01:14:18;2.58;;;2.58;;
73154;SDS011;61364;52.418;7.382;2022-09-09T01:16:52;2.83;;;2.83;;
73154;SDS011;61364;52.418;7.382;2022-09-09T01:19:27;2.74;;;2.74;;
73154;SDS011;61364;52.418;7.382;2022-09-09T01:22:02;2.65;;;2.65;;
73154;SDS011;61364;52.418;7.382;2022-09-09T01:24:36;2.58;;;2.58;;
73154;SDS011;61364;52.418;7.382;2022-09-09T01:27:06;2.86;;;2.86;;
73154;SDS011;61364;52.418;7.382;2022-09-09T01:29:33;2.56;;;2.56;;
73154;SDS011;61364;52.418;7.382;2022-09-09T01:32:35;2.65;;;2.65;;
73154;SDS011;61364;52.418;7.382;2022-09-09T01:34:48;2.50;;;2.50;;
73154;SDS011;61364;52.418;7.382;2022-09-09T01:37:15;2.67;;;2.67;;
73154;SDS011;61364;52.418;7.382;2022-09-09T01:39:41;2.60;;;2.60;;
73154;SDS011;61364;52.418;7.382;2022-09-09T01:42:09;2.52;;;2.52;;
73154;SDS011;61364;52.418;7.382;2022-09-09T01:44:38;2.41;;;2.41;;
73154;SDS011;61364;52.418;7.382;2022-09-09T01:47:04;2.41;;;2.41;;
73154;SDS011;61364;52.418;7.382;2022-09-09T01:49:31;2.36;;;2.36;;
73154;SDS011;61364;52.418;7.382;2022-09-09T01:51:58;2.57;;;2.57;;
73154;SDS011;61364;52.418;7.382;2022-09-09T01:54:26;2.45;;;2.45;;
73154;SDS011;61364;52.418;7.382;2022-09-09T01:59:23;2.05;;;2.05;;
73154;SDS011;61364;52.418;7.382;2022-09-09T02:04:43;2.10;;;2.10;;
73154;SDS011;61364;52.418;7.382;2022-09-09T02:07:52;2.21;;;2.21;;
73154;SDS011;61364;52.418;7.382;2022-09-09T02:10:03;1.94;;;1.94;;
73154;SDS011;61364;52.418;7.382;2022-09-09T02:12:33;1.82;;;1.82;;
73154;SDS011;61364;52.418;7.382;2022-09-09T02:15:07;1.89;;;1.89;;
73154;SDS011;61364;52.418;7.382;2022-09-09T02:17:37;2.04;;;2.04;;
73154;SDS011;61364;52.418;7.382;2022-09-09T02:20:06;1.82;;;1.82;;
73154;SDS011;61364;52.418;7.382;2022-09-09T02:22:33;1.76;;;1.76;;
73154;SDS011;61364;52.418;7.382;2022-09-09T02:25:01;1.77;;;1.77;;
73154;SDS011;61364;52.418;7.382;2022-09-09T02:27:30;1.79;;;1.79;;
73154;SDS011;61364;52.418;7.382;2022-09-09T02:29:56;1.77;;;1.77;;
73154;SDS011;61364;52.418;7.382;2022-09-09T02:32:25;1.79;;;1.79;;
73154;SDS011;61364;52.418;7.382;2022-09-09T02:34:57;1.79;;;1.79;;
73154;SDS011;61364;52.418;7.382;2022-09-09T02:37:25;1.83;;;1.83;;
73154;SDS011;61364;52.418;7.382;2022-09-09T02:39:55;1.80;;;1.80;;
73154;SDS011;61364;52.418;7.382;2022-09-09T02:42:21;1.94;;;1.94;;
73154;SDS011;61364;52.418;7.382;2022-09-09T02:44:47;1.72;;;1.72;;
73154;SDS011;61364;52.418;7.382;2022-09-09T02:49:59;1.93;;;1.93;;
73154;SDS011;61364;52.418;7.382;2022-09-09T02:55:16;1.96;;;1.96;;
73154;SDS011;61364;52.418;7.382;2022-09-09T02:57:44;1.97;;;1.97;;
73154;SDS011;61364;52.418;7.382;2022-09-09T03:00:12;2.07;;;2.07;;
73154;SDS011;61364;52.418;7.382;2022-09-09T03:02:38;2.17;;;2.17;;
73154;SDS011;61364;52.418;7.382;2022-09-09T03:05:04;1.96;;;1.96;;
73154;SDS011;61364;52.418;7.382;2022-09-09T03:07:30;2.18;;;2.18;;
73154;SDS011;61364;52.418;7.382;2022-09-09T03:09:55;2.31;;;2.31;;
73154;SDS011;61364;52.418;7.382;2022-09-09T03:12:21;2.20;;;2.20;;
73154;SDS011;61364;52.418;7.382;2022-09-09T03:14:46;2.16;;;2.16;;
73154;SDS011;61364;52.418;7.382;2022-09-09T03:17:12;2.20;;;2.20;;
73154;SDS011;61364;52.418;7.382;2022-09-09T03:19:37;2.44;;;2.44;;
73154;SDS011;61364;52.418;7.382;2022-09-09T03:22:03;2.36;;;2.36;;
73154;SDS011;61364;52.418;7.382;2022-09-09T03:24:29;2.41;;;2.41;;
73154;SDS011;61364;52.418;7.382;2022-09-09T03:26:55;2.48;;;2.48;;
73154;SDS011;61364;52.418;7.382;2022-09-09T03:29:21;2.52;;;2.52;;
73154;SDS011;61364;52.418;7.382;2022-09-09T03:31:46;2.47;;;2.47;;
73154;SDS011;61364;52.418;7.382;2022-09-09T03:34:12;2.56;;;2.56;;
73154;SDS011;61364;52.418;7.382;2022-09-09T03:36:38;2.68;;;2.68;;
73154;SDS011;61364;52.418;7.382;2022-09-09T03:39:05;2.60;;;2.60;;
73154;SDS011;61364;52.418;7.382;2022-09-09T03:41:31;2.51;;;2.51;;
73154;SDS011;61364;52.418;7.382;2022-09-09T03:43:56;2.65;;;2.65;;
73154;SDS011;61364;52.418;7.382;2022-09-09T03:46:24;2.65;;;2.65;;
73154;SDS011;61364;52.418;7.382;2022-09-09T03:48:50;2.46;;;2.46;;
73154;SDS011;61364;52.418;7.382;2022-09-09T03:51:18;2.66;;;2.66;;
73154;SDS011;61364;52.418;7.382;2022-09-09T03:53:43;2.86;;;2.86;;
73154;SDS011;61364;52.418;7.382;2022-09-09T03:56:09;2.76;;;2.76;;
73154;SDS011;61364;52.418;7.382;2022-09-09T03:58:35;2.75;;;2.75;;
73154;SDS011;61364;52.418;7.382;2022-09-09T04:01:02;2.82;;;2.82;;
73154;SDS011;61364;52.418;7.382;2022-09-09T04:03:32;2.76;;;2.76;;
73154;SDS011;61364;52.418;7.382;2022-09-09T04:05:58;2.71;;;2.71;;
73154;SDS011;61364;52.418;7.382;2022-09-09T04:08:25;2.89;;;2.89;;
73154;SDS011;61364;52.418;7.382;2022-09-09T04:10:52;2.85;;;2.85;;
73154;SDS011;61364;52.418;7.382;2022-09-09T04:13:18;2.97;;;2.97;;
73154;SDS011;61364;52.418;7.382;2022-09-09T04:15:54;2.89;;;2.89;;
73154;SDS011;61364;52.418;7.382;2022-09-09T04:18:21;2.76;;;2.76;;
73154;SDS011;61364;52.418;7.382;2022-09-09T04:20:47;2.67;;;2.67;;
73154;SDS011;61364;52.418;7.382;2022-09-09T04:23:14;3.08;;;3.08;;
73154;SDS011;61364;52.418;7.382;2022-09-09T04:25:43;3.18;;;3.18;;
73154;SDS011;61364;52.418;7.382;2022-09-09T04:28:10;3.23;;;3.23;;
73154;SDS011;61364;52.418;7.382;2022-09-09T04:30:35;3.32;;;3.32;;
73154;SDS011;61364;52.418;7.382;2022-09-09T04:33:01;3.14;;;3.14;;
73154;SDS011;61364;52.418;7.382;2022-09-09T04:35:26;3.34;;;3.34;;
73154;SDS011;61364;52.418;7.382;2022-09-09T04:37:52;3.27;;;3.27;;
73154;SDS011;61364;52.418;7.382;2022-09-09T04:40:18;3.47;;;3.47;;
73154;SDS011;61364;52.418;7.382;2022-09-09T04:42:43;3.55;;;3.55;;
73154;SDS011;61364;52.418;7.382;2022-09-09T04:45:09;3.98;;;3.98;;
73154;SDS011;61364;52.418;7.382;2022-09-09T04:47:36;3.78;;;3.78;;
73154;SDS011;61364;52.418;7.382;2022-09-09T04:50:02;3.79;;;3.79;;
73154;SDS011;61364;52.418;7.382;2022-09-09T04:52:28;3.60;;;3.60;;
73154;SDS011;61364;52.418;7.382;2022-09-09T04:54:53;3.60;;;3.60;;
73154;SDS011;61364;52.418;7.382;2022-09-09T04:57:19;3.65;;;3.65;;
73154;SDS011;61364;52.418;7.382;2022-09-09T04:59:44;3.62;;;3.62;;
73154;SDS011;61364;52.418;7.382;2022-09-09T05:02:11;3.58;;;3.58;;
73154;SDS011;61364;52.418;7.382;2022-09-09T05:04:37;4.01;;;4.01;;
73154;SDS011;61364;52.418;7.382;2022-09-09T05:07:02;4.27;;;4.27;;
73154;SDS011;61364;52.418;7.382;2022-09-09T05:09:28;4.34;;;4.34;;
73154;SDS011;61364;52.418;7.382;2022-09-09T05:11:54;4.73;;;4.73;;
73154;SDS011;61364;52.418;7.382;2022-09-09T05:14:20;4.40;;;4.40;;
73154;SDS011;61364;52.418;7.382;2022-09-09T05:16:45;4.57;;;4.57;;
73154;SDS011;61364;52.418;7.382;2022-09-09T05:19:12;4.57;;;4.57;;
73154;SDS011;61364;52.418;7.382;2022-09-09T05:21:38;4.74;;;4.74;;
73154;SDS011;61364;52.418;7.382;2022-09-09T05:24:04;4.52;;;4.52;;
73154;SDS011;61364;52.418;7.382;2022-09-09T05:26:29;4.98;;;4.98;;
73154;SDS011;61364;52.418;7.382;2022-09-09T05:28:55;4.88;;;4.88;;
73154;SDS011;61364;52.418;7.382;2022-09-09T05:31:24;4.90;;;4.90;;
73154;SDS011;61364;52.418;7.382;2022-09-09T05:33:52;4.80;;;4.80;;
73154;SDS011;61364;52.418;7.382;2022-09-09T05:36:19;5.02;;;5.02;;
73154;SDS011;61364;52.418;7.382;2022-09-09T05:38:45;5.19;;;5.19;;
73154;SDS011;61364;52.418;7.382;2022-09-09T05:41:12;6.11;;;6.11;;
73154;SDS011;61364;52.418;7.382;2022-09-09T05:43:41;6.61;;;6.61;;
73154;SDS011;61364;52.418;7.382;2022-09-09T05:46:16;6.70;;;6.70;;
73154;SDS011;61364;52.418;7.382;2022-09-09T05:48:43;7.18;;;7.18;;
73154;SDS011;61364;52.418;7.382;2022-09-09T05:51:13;6.53;;;6.53;;
73154;SDS011;61364;52.418;7.382;2022-09-09T05:53:41;7.50;;;7.50;;
73154;SDS011;61364;52.418;7.382;2022-09-09T05:56:08;7.68;;;7.68;;
73154;SDS011;61364;52.418;7.382;2022-09-09T05:58:36;7.41;;;7.41;;
73154;SDS011;61364;52.418;7.382;2022-09-09T06:01:05;8.00;;;8.00;;
73154;SDS011;61364;52.418;7.382;2022-09-09T06:03:32;7.93;;;7.93;;
73154;SDS011;61364;52.418;7.382;2022-09-09T06:06:02;8.47;;;8.46;;
73154;SDS011;61364;52.418;7.382;2022-09-09T06:08:32;8.20;;;8.20;;
73154;SDS011;61364;52.418;7.382;2022-09-09T06:11:03;8.03;;;8.03;;
73154;SDS011;61364;52.418;7.382;2022-09-09T06:13:29;8.20;;;8.20;;
73154;SDS011;61364;52.418;7.382;2022-09-09T06:15:55;7.84;;;7.84;;
73154;SDS011;61364;52.418;7.382;2022-09-09T06:18:21;7.71;;;7.71;;
73154;SDS011;61364;52.418;7.382;2022-09-09T06:20:54;8.22;;;8.22;;
73154;SDS011;61364;52.418;7.382;2022-09-09T06:23:19;8.43;;;8.43;;
73154;SDS011;61364;52.418;7.382;2022-09-09T06:25:45;8.50;;;8.50;;
73154;SDS011;61364;52.418;7.382;2022-09-09T06:28:12;8.59;;;8.59;;
73154;SDS011;61364;52.418;7.382;2022-09-09T06:30:39;8.74;;;8.74;;
73154;SDS011;61364;52.418;7.382;2022-09-09T06:33:05;8.43;;;8.43;;
73154;SDS011;61364;52.418;7.382;2022-09-09T06:35:30;8.41;;;8.41;;
73154;SDS011;61364;52.418;7.382;2022-09-09T06:37:56;8.01;;;8.01;;
73154;SDS011;61364;52.418;7.382;2022-09-09T06:40:24;7.60;;;7.60;;
73154;SDS011;61364;52.418;7.382;2022-09-09T06:42:50;7.25;;;7.25;;
73154;SDS011;61364;52.418;7.382;2022-09-09T06:45:15;7.53;;;7.53;;
73154;SDS011;61364;52.418;7.382;2022-09-09T06:47:42;7.25;;;7.25;;
73154;SDS011;61364;52.418;7.382;2022-09-09T06:50:08;6.87;;;6.87;;
73154;SDS011;61364;52.418;7.382;2022-09-09T06:52:33;6.68;;;6.68;;
73154;SDS011;61364;52.418;7.382;2022-09-09T06:54:59;6.50;;;6.50;;
73154;SDS011;61364;52.418;7.382;2022-09-09T06:57:24;6.31;;;6.31;;
73154;SDS011;61364;52.418;7.382;2022-09-09T06:59:50;5.68;;;5.68;;
73154;SDS011;61364;52.418;7.382;2022-09-09T07:02:15;5.65;;;5.65;;
73154;SDS011;61364;52.418;7.382;2022-09-09T07:04:41;6.26;;;6.26;;
73154;SDS011;61364;52.418;7.382;2022-09-09T07:07:08;5.83;;;5.83;;
73154;SDS011;61364;52.418;7.382;2022-09-09T07:09:35;5.83;;;5.83;;
73154;SDS011;61364;52.418;7.382;2022-09-09T07:12:00;5.63;;;5.63;;
73154;SDS011;61364;52.418;7.382;2022-09-09T07:14:26;4.89;;;4.89;;
73154;SDS011;61364;52.418;7.382;2022-09-09T07:16:52;4.75;;;4.75;;
73154;SDS011;61364;52.418;7.382;2022-09-09T07:19:18;4.72;;;4.72;;
73154;SDS011;61364;52.418;7.382;2022-09-09T07:21:43;4.75;;;4.75;;
73154;SDS011;61364;52.418;7.382;2022-09-09T07:24:09;4.45;;;4.45;;
73154;SDS011;61364;52.418;7.382;2022-09-09T07:26:36;4.41;;;4.41;;
73154;SDS011;61364;52.418;7.382;2022-09-09T07:29:02;4.58;;;4.58;;
73154;SDS011;61364;52.418;7.382;2022-09-09T07:31:32;4.30;;;4.30;;
73154;SDS011;61364;52.418;7.382;2022-09-09T07:33:58;4.31;;;4.31;;
73154;SDS011;61364;52.418;7.382;2022-09-09T07:36:28;4.05;;;4.05;;
73154;SDS011;61364;52.418;7.382;2022-09-09T07:38:55;4.14;;;4.14;;
73154;SDS011;61364;52.418;7.382;2022-09-09T07:41:26;4.26;;;4.26;;
73154;SDS011;61364;52.418;7.382;2022-09-09T07:43:52;4.03;;;4.03;;
73154;SDS011;61364;52.418;7.382;2022-09-09T07:46:22;4.03;;;4.03;;
73154;SDS011;61364;52.418;7.382;2022-09-09T07:48:49;4.17;;;4.17;;
73154;SDS011;61364;52.418;7.382;2022-09-09T07:51:21;4.05;;;4.05;;
73154;SDS011;61364;52.418;7.382;2022-09-09T07:53:48;4.12;;;4.12;;
73154;SDS011;61364;52.418;7.382;2022-09-09T07:56:15;3.75;;;3.75;;
73154;SDS011;61364;52.418;7.382;2022-09-09T07:58:42;3.55;;;3.55;;
73154;SDS011;61364;52.418;7.382;2022-09-09T08:01:11;3.83;;;3.83;;
73154;SDS011;61364;52.418;7.382;2022-09-09T08:03:38;3.66;;;3.66;;
73154;SDS011;61364;52.418;7.382;2022-09-09T08:06:04;3.38;;;3.38;;
73154;SDS011;61364;52.418;7.382;2022-09-09T08:08:31;3.43;;;3.43;;
73154;SDS011;61364;52.418;7.382;2022-09-09T08:11:04;3.49;;;3.49;;
73154;SDS011;61364;52.418;7.382;2022-09-09T08:13:30;3.65;;;3.65;;
73154;SDS011;61364;52.418;7.382;2022-09-09T08:16:03;3.49;;;3.49;;
73154;SDS011;61364;52.418;7.382;2022-09-09T08:18:29;3.47;;;3.47;;
73154;SDS011;61364;52.418;7.382;2022-09-09T08:20:55;4.03;;;4.03;;
73154;SDS011;61364;52.418;7.382;2022-09-09T08:23:20;3.73;;;3.73;;
73154;SDS011;61364;52.418;7.382;2022-09-09T08:25:46;3.70;;;3.70;;
73154;SDS011;61364;52.418;7.382;2022-09-09T08:28:14;3.52;;;3.52;;
73154;SDS011;61364;52.418;7.382;2022-09-09T08:30:39;3.30;;;3.30;;
73154;SDS011;61364;52.418;7.382;2022-09-09T08:33:05;3.51;;;3.51;;
73154;SDS011;61364;52.418;7.382;2022-09-09T08:35:30;3.30;;;3.30;;
73154;SDS011;61364;52.418;7.382;2022-09-09T08:37:57;3.40;;;3.40;;
73154;SDS011;61364;52.418;7.382;2022-09-09T08:40:25;3.50;;;3.50;;
73154;SDS011;61364;52.418;7.382;2022-09-09T08:42:55;3.75;;;3.75;;
73154;SDS011;61364;52.418;7.382;2022-09-09T08:46:11;4.04;;;4.04;;
73154;SDS011;61364;52.418;7.382;2022-09-09T08:48:21;4.15;;;4.15;;
73154;SDS011;61364;52.418;7.382;2022-09-09T08:50:56;4.18;;;4.18;;
73154;SDS011;61364;52.418;7.382;2022-09-09T08:53:27;4.59;;;4.59;;
73154;SDS011;61364;52.418;7.382;2022-09-09T08:55:59;4.82;;;4.82;;
73154;SDS011;61364;52.418;7.382;2022-09-09T08:58:27;5.03;;;5.03;;
73154;SDS011;61364;52.418;7.382;2022-09-09T09:03:35;5.19;;;5.19;;
73154;SDS011;61364;52.418;7.382;2022-09-09T09:10:57;5.31;;;5.31;;
73154;SDS011;61364;52.418;7.382;2022-09-09T09:15:55;5.55;;;5.55;;
73154;SDS011;61364;52.418;7.382;2022-09-09T09:18:25;5.09;;;5.09;;
73154;SDS011;61364;52.418;7.382;2022-09-09T09:21:12;5.39;;;5.39;;
73154;SDS011;61364;52.418;7.382;2022-09-09T09:23:59;5.78;;;5.78;;
73154;SDS011;61364;52.418;7.382;2022-09-09T09:26:28;6.23;;;6.23;;
73154;SDS011;61364;52.418;7.382;2022-09-09T09:28:56;6.58;;;6.58;;
73154;SDS011;61364;52.418;7.382;2022-09-09T09:31:24;6.95;;;6.95;;
73154;SDS011;61364;52.418;7.382;2022-09-09T09:33:55;7.90;;;7.90;;
73154;SDS011;61364;52.418;7.382;2022-09-09T09:36:24;8.65;;;8.65;;
73154;SDS011;61364;52.418;7.382;2022-09-09T09:38:59;10.01;;;10.01;;
73154;SDS011;61364;52.418;7.382;2022-09-09T09:41:34;10.86;;;10.86;;
73154;SDS011;61364;52.418;7.382;2022-09-09T09:44:01;10.93;;;10.93;;
73154;SDS011;61364;52.418;7.382;2022-09-09T09:46:28;10.64;;;10.64;;
73154;SDS011;61364;52.418;7.382;2022-09-09T09:48:57;10.02;;;10.02;;
73154;SDS011;61364;52.418;7.382;2022-09-09T09:51:24;9.27;;;9.27;;
73154;SDS011;61364;52.418;7.382;2022-09-09T09:53:51;9.15;;;9.15;;
73154;SDS011;61364;52.418;7.382;2022-09-09T09:56:25;9.61;;;9.61;;
73154;SDS011;61364;52.418;7.382;2022-09-09T09:58:53;8.99;;;8.99;;
73154;SDS011;61364;52.418;7.382;2022-09-09T10:01:25;8.73;;;8.73;;
73154;SDS011;61364;52.418;7.382;2022-09-09T10:06:51;8.63;;;8.63;;
73154;SDS011;61364;52.418;7.382;2022-09-09T10:16:50;7.98;;;7.98;;
73154;SDS011;61364;52.418;7.382;2022-09-09T10:19:31;7.89;;;7.89;;
73154;SDS011;61364;52.418;7.382;2022-09-09T10:27:11;7.38;;;7.38;;
73154;SDS011;61364;52.418;7.382;2022-09-09T10:35:02;8.81;;;8.81;;
73154;SDS011;61364;52.418;7.382;2022-09-09T10:40:06;8.71;;;8.71;;
73154;SDS011;61364;52.418;7.382;2022-09-09T10:42:44;8.14;;;8.14;;
73154;SDS011;61364;52.418;7.382;2022-09-09T10:48:02;8.41;;;8.41;;
73154;SDS011;61364;52.418;7.382;2022-09-09T10:53:05;6.07;;;6.07;;
73154;SDS011;61364;52.418;7.382;2022-09-09T10:55:39;6.11;;;6.11;;
73154;SDS011;61364;52.418;7.382;2022-09-09T10:58:11;6.20;;;6.20;;
73154;SDS011;61364;52.418;7.382;2022-09-09T11:00:45;6.12;;;6.12;;
73154;SDS011;61364;52.418;7.382;2022-09-09T11:03:19;5.88;;;5.88;;
73154;SDS011;61364;52.418;7.382;2022-09-09T11:05:48;4.79;;;4.79;;
73154;SDS011;61364;52.418;7.382;2022-09-09T11:08:21;4.56;;;4.56;;
73154;SDS011;61364;52.418;7.382;2022-09-09T11:10:53;4.78;;;4.78;;
73154;SDS011;61364;52.418;7.382;2022-09-09T11:16:01;2.65;;;2.65;;
73154;SDS011;61364;52.418;7.382;2022-09-09T11:18:32;2.59;;;2.59;;
73154;SDS011;61364;52.418;7.382;2022-09-09T11:21:03;2.24;;;2.24;;
73154;SDS011;61364;52.418;7.382;2022-09-09T11:23:40;2.14;;;2.14;;
73154;SDS011;61364;52.418;7.382;2022-09-09T11:26:10;1.80;;;1.80;;
73154;SDS011;61364;52.418;7.382;2022-09-09T11:34:03;1.83;;;1.83;;
73154;SDS011;61364;52.418;7.382;2022-09-09T11:41:40;1.64;;;1.64;;
73154;SDS011;61364;52.418;7.382;2022-09-09T11:44:17;1.83;;;1.83;;
73154;SDS011;61364;52.418;7.382;2022-09-09T11:46:46;1.91;;;1.91;;
73154;SDS011;61364;52.418;7.382;2022-09-09T11:49:26;1.88;;;1.88;;
73154;SDS011;61364;52.418;7.382;2022-09-09T11:51:53;1.88;;;1.88;;
73154;SDS011;61364;52.418;7.382;2022-09-09T11:54:30;2.03;;;2.03;;
73154;SDS011;61364;52.418;7.382;2022-09-09T11:56:57;2.21;;;2.21;;
73154;SDS011;61364;52.418;7.382;2022-09-09T11:59:24;2.24;;;2.24;;
73154;SDS011;61364;52.418;7.382;2022-09-09T12:09:39;3.46;;;3.46;;
73154;SDS011;61364;52.418;7.382;2022-09-09T12:14:43;3.84;;;3.84;;
73154;SDS011;61364;52.418;7.382;2022-09-09T12:17:19;3.62;;;3.62;;
73154;SDS011;61364;52.418;7.382;2022-09-09T12:19:48;3.74;;;3.74;;
73154;SDS011;61364;52.418;7.382;2022-09-09T12:22:35;3.52;;;3.52;;
73154;SDS011;61364;52.418;7.382;2022-09-09T12:27:57;3.22;;;3.22;;
73154;SDS011;61364;52.418;7.382;2022-09-09T12:33:16;2.97;;;2.97;;
73154;SDS011;61364;52.418;7.382;2022-09-09T12:35:44;3.16;;;3.16;;
73154;SDS011;61364;52.418;7.382;2022-09-09T12:38:15;2.95;;;2.95;;
73154;SDS011;61364;52.418;7.382;2022-09-09T12:40:54;2.68;;;2.68;;
73154;SDS011;61364;52.418;7.382;2022-09-09T12:43:21;2.48;;;2.48;;
73154;SDS011;61364;52.418;7.382;2022-09-09T12:45:48;2.44;;;2.44;;
73154;SDS011;61364;52.418;7.382;2022-09-09T12:48:17;2.30;;;2.30;;
73154;SDS011;61364;52.418;7.382;2022-09-09T12:50:47;2.00;;;2.00;;
73154;SDS011;61364;52.418;7.382;2022-09-09T12:53:31;2.13;;;2.13;;
73154;SDS011;61364;52.418;7.382;2022-09-09T12:56:00;2.07;;;2.07;;
73154;SDS011;61364;52.418;7.382;2022-09-09T12:58:28;1.92;;;1.92;;
73154;SDS011;61364;52.418;7.382;2022-09-09T13:00:59;2.03;;;2.03;;
73154;SDS011;61364;52.418;7.382;2022-09-09T13:03:25;2.06;;;2.06;;
73154;SDS011;61364;52.418;7.382;2022-09-09T13:05:52;2.06;;;2.06;;
73154;SDS011;61364;52.418;7.382;2022-09-09T13:08:18;2.11;;;2.11;;
73154;SDS011;61364;52.418;7.382;2022-09-09T13:11:03;1.97;;;1.97;;
73154;SDS011;61364;52.418;7.382;2022-09-09T13:13:39;2.65;;;2.65;;
73154;SDS011;61364;52.418;7.382;2022-09-09T13:16:06;2.27;;;2.27;;
73154;SDS011;61364;52.418;7.382;2022-09-09T13:18:41;2.16;;;2.16;;
73154;SDS011;61364;52.418;7.382;2022-09-09T13:21:07;1.99;;;1.99;;
73154;SDS011;61364;52.418;7.382;2022-09-09T13:23:34;1.66;;;1.66;;
73154;SDS011;61364;52.418;7.382;2022-09-09T13:26:02;1.58;;;1.58;;
73154;SDS011;61364;52.418;7.382;2022-09-09T13:28:30;1.53;;;1.53;;
73154;SDS011;61364;52.418;7.382;2022-09-09T13:30:57;1.50;;;1.50;;
73154;SDS011;61364;52.418;7.382;2022-09-09T13:33:44;1.65;;;1.65;;
73154;SDS011;61364;52.418;7.382;2022-09-09T13:36:10;1.57;;;1.57;;
73154;SDS011;61364;52.418;7.382;2022-09-09T13:38:59;1.72;;;1.72;;
73154;SDS011;61364;52.418;7.382;2022-09-09T13:41:31;2.15;;;2.15;;
73154;SDS011;61364;52.418;7.382;2022-09-09T13:43:58;2.11;;;2.11;;
73154;SDS011;61364;52.418;7.382;2022-09-09T13:46:35;2.44;;;2.44;;
73154;SDS011;61364;52.418;7.382;2022-09-09T13:49:22;2.46;;;2.46;;
73154;SDS011;61364;52.418;7.382;2022-09-09T13:51:48;2.57;;;2.57;;
73154;SDS011;61364;52.418;7.382;2022-09-09T13:54:16;2.52;;;2.52;;
73154;SDS011;61364;52.418;7.382;2022-09-09T13:56:43;2.01;;;2.01;;
73154;SDS011;61364;52.418;7.382;2022-09-09T13:59:11;2.05;;;2.05;;
73154;SDS011;61364;52.418;7.382;2022-09-09T14:01:37;1.78;;;1.78;;
73154;SDS011;61364;52.418;7.382;2022-09-09T14:04:03;1.74;;;1.74;;
73154;SDS011;61364;52.418;7.382;2022-09-09T14:06:28;1.50;;;1.50;;
73154;SDS011;61364;52.418;7.382;2022-09-09T14:08:54;1.46;;;1.46;;
73154;SDS011;61364;52.418;7.382;2022-09-09T14:11:20;1.38;;;1.38;;
73154;SDS011;61364;52.418;7.382;2022-09-09T14:13:47;1.37;;;1.37;;
73154;SDS011;61364;52.418;7.382;2022-09-09T14:16:15;1.47;;;1.47;;
73154;SDS011;61364;52.418;7.382;2022-09-09T14:18:43;1.33;;;1.33;;
73154;SDS011;61364;52.418;7.382;2022-09-09T14:21:09;1.48;;;1.48;;
73154;SDS011;61364;52.418;7.382;2022-09-09T14:23:34;1.45;;;1.45;;
73154;SDS011;61364;52.418;7.382;2022-09-09T14:26:00;1.68;;;1.68;;
73154;SDS011;61364;52.418;7.382;2022-09-09T14:28:26;1.47;;;1.47;;
73154;SDS011;61364;52.418;7.382;2022-09-09T14:30:53;1.51;;;1.51;;
73154;SDS011;61364;52.418;7.382;2022-09-09T14:33:19;1.72;;;1.72;;
73154;SDS011;61364;52.418;7.382;2022-09-09T14:35:44;1.82;;;1.82;;
73154;SDS011;61364;52.418;7.382;2022-09-09T14:38:10;1.83;;;1.83;;
73154;SDS011;61364;52.418;7.382;2022-09-09T14:40:36;1.89;;;1.89;;
73154;SDS011;61364;52.418;7.382;2022-09-09T14:43:02;1.88;;;1.88;;
73154;SDS011;61364;52.418;7.382;2022-09-09T14:45:28;1.94;;;1.94;;
73154;SDS011;61364;52.418;7.382;2022-09-09T14:47:53;1.75;;;1.75;;
73154;SDS011;61364;52.418;7.382;2022-09-09T14:50:20;1.99;;;1.99;;
73154;SDS011;61364;52.418;7.382;2022-09-09T14:52:46;2.18;;;2.18;;
73154;SDS011;61364;52.418;7.382;2022-09-09T14:55:12;2.11;;;2.11;;
73154;SDS011;61364;52.418;7.382;2022-09-09T14:57:38;1.99;;;1.99;;
73154;SDS011;61364;52.418;7.382;2022-09-09T15:00:06;2.22;;;2.22;;
73154;SDS011;61364;52.418;7.382;2022-09-09T15:02:32;2.26;;;2.26;;
73154;SDS011;61364;52.418;7.382;2022-09-09T15:04:57;2.49;;;2.49;;
73154;SDS011;61364;52.418;7.382;2022-09-09T15:07:24;2.30;;;2.30;;
73154;SDS011;61364;52.418;7.382;2022-09-09T15:09:50;2.47;;;2.47;;
73154;SDS011;61364;52.418;7.382;2022-09-09T15:12:16;2.42;;;2.42;;
73154;SDS011;61364;52.418;7.382;2022-09-09T15:14:44;2.46;;;2.46;;
73154;SDS011;61364;52.418;7.382;2022-09-09T15:17:10;2.17;;;2.17;;
73154;SDS011;61364;52.418;7.382;2022-09-09T15:19:36;2.37;;;2.37;;
73154;SDS011;61364;52.418;7.382;2022-09-09T15:22:03;2.32;;;2.32;;
73154;SDS011;61364;52.418;7.382;2022-09-09T15:24:33;1.71;;;1.71;;
73154;SDS011;61364;52.418;7.382;2022-09-09T15:27:00;1.41;;;1.41;;
73154;SDS011;61364;52.418;7.382;2022-09-09T15:29:26;1.40;;;1.40;;
73154;SDS011;61364;52.418;7.382;2022-09-09T15:31:53;1.24;;;1.24;;
73154;SDS011;61364;52.418;7.382;2022-09-09T15:34:19;1.55;;;1.55;;
73154;SDS011;61364;52.418;7.382;2022-09-09T15:36:45;1.35;;;1.35;;
73154;SDS011;61364;52.418;7.382;2022-09-09T15:39:12;1.34;;;1.34;;
73154;SDS011;61364;52.418;7.382;2022-09-09T15:41:44;1.25;;;1.25;;
73154;SDS011;61364;52.418;7.382;2022-09-09T15:44:10;1.44;;;1.44;;
73154;SDS011;61364;52.418;7.382;2022-09-09T15:46:38;1.61;;;1.61;;
73154;SDS011;61364;52.418;7.382;2022-09-09T15:49:09;1.57;;;1.57;;
73154;SDS011;61364;52.418;7.382;2022-09-09T15:51:37;1.61;;;1.61;;
73154;SDS011;61364;52.418;7.382;2022-09-09T15:54:03;1.56;;;1.56;;
73154;SDS011;61364;52.418;7.382;2022-09-09T15:56:29;1.79;;;1.79;;
73154;SDS011;61364;52.418;7.382;2022-09-09T15:58:55;1.72;;;1.72;;
73154;SDS011;61364;52.418;7.382;2022-09-09T16:01:22;1.73;;;1.73;;
73154;SDS011;61364;52.418;7.382;2022-09-09T16:03:48;1.89;;;1.89;;
73154;SDS011;61364;52.418;7.382;2022-09-09T16:06:17;1.90;;;1.90;;
73154;SDS011;61364;52.418;7.382;2022-09-09T16:08:44;1.77;;;1.77;;
73154;SDS011;61364;52.418;7.382;2022-09-09T16:11:27;1.77;;;1.77;;
73154;SDS011;61364;52.418;7.382;2022-09-09T16:13:54;1.84;;;1.84;;
73154;SDS011;61364;52.418;7.382;2022-09-09T16:16:21;1.91;;;1.91;;
73154;SDS011;61364;52.418;7.382;2022-09-09T16:18:50;1.95;;;1.95;;
73154;SDS011;61364;52.418;7.382;2022-09-09T16:21:18;1.91;;;1.91;;
73154;SDS011;61364;52.418;7.382;2022-09-09T16:23:45;1.97;;;1.97;;
73154;SDS011;61364;52.418;7.382;2022-09-09T16:26:11;1.87;;;1.87;;
73154;SDS011;61364;52.418;7.382;2022-09-09T16:28:38;1.93;;;1.93;;
73154;SDS011;61364;52.418;7.382;2022-09-09T16:31:08;2.00;;;2.00;;
73154;SDS011;61364;52.418;7.382;2022-09-09T16:33:35;2.34;;;2.34;;
73154;SDS011;61364;52.418;7.382;2022-09-09T16:36:08;4.26;;;4.26;;
73154;SDS011;61364;52.418;7.382;2022-09-09T16:38:36;5.74;;;5.74;;
73154;SDS011;61364;52.418;7.382;2022-09-09T16:41:02;4.60;;;4.60;;
73154;SDS011;61364;52.418;7.382;2022-09-09T16:43:30;4.87;;;4.87;;
73154;SDS011;61364;52.418;7.382;2022-09-09T16:45:56;5.02;;;5.02;;
73154;SDS011;61364;52.418;7.382;2022-09-09T16:48:21;4.06;;;4.06;;
73154;SDS011;61364;52.418;7.382;2022-09-09T16:50:47;4.01;;;4.01;;